N888YW KSBP-KAVX
Flight info
| Callsign | N888YW |
|---|---|
| Flight time | 1h 21m |
| Altitude | 6000 |
| Route | DCT |
| Aircraft | DA40/L-SDGRY/S |
Departure
| Time | 2026-04-21 20:19 |
|---|---|
| Airport | San Luis County Regional Airport (KSBP) |
Arrival
| Time | 2026-04-21 21:40 |
|---|---|
| Airport | Catalina Airport (KAVX) |
| Time | Latitude | Longitude | Altitude | Speed | Heading |
|---|---|---|---|---|---|
| 2026-04-21 20:08 | 35.23655 | -120.63714 | 178 ft | 0 kts | 128° |
| 2026-04-21 20:16 | 35.23609 | -120.63659 | 178 ft | 15 kts | 150° |
| 2026-04-21 20:17 | 35.23533 | -120.63560 | 178 ft | 19 kts | 124° |
| 2026-04-21 20:17 | 35.23458 | -120.63428 | 178 ft | 21 kts | 129° |
| 2026-04-21 20:17 | 35.23381 | -120.63296 | 178 ft | 18 kts | 125° |
| 2026-04-21 20:17 | 35.23282 | -120.63273 | 179 ft | 19 kts | 220° |
| 2026-04-21 20:18 | 35.23277 | -120.63336 | 178 ft | 8 kts | 318° |
| 2026-04-21 20:18 | 35.23355 | -120.63446 | 177 ft | 28 kts | 303° |
| 2026-04-21 20:18 | 35.23539 | -120.63764 | 178 ft | 66 kts | 300° |
| 2026-04-21 20:18 | 35.23848 | -120.64254 | 354 ft | 73 kts | 293° |
| 2026-04-21 20:19 | 35.24134 | -120.64760 | 517 ft | 79 kts | 295° |
| 2026-04-21 20:19 | 35.24405 | -120.65327 | 764 ft | 77 kts | 293° |
| 2026-04-21 20:19 | 35.24517 | -120.65925 | 1009 ft | 72 kts | 247° |
| 2026-04-21 20:19 | 35.24122 | -120.66236 | 1290 ft | 73 kts | 191° |
| 2026-04-21 20:20 | 35.23607 | -120.66304 | 1519 ft | 74 kts | 195° |
| 2026-04-21 20:20 | 35.23135 | -120.66216 | 1819 ft | 77 kts | 159° |
| 2026-04-21 20:20 | 35.22766 | -120.65646 | 1986 ft | 93 kts | 138° |
| 2026-04-21 20:20 | 35.22268 | -120.65037 | 2029 ft | 107 kts | 144° |
| 2026-04-21 20:21 | 35.21731 | -120.64389 | 2181 ft | 104 kts | 144° |
| 2026-04-21 20:21 | 35.21273 | -120.63811 | 2444 ft | 93 kts | 147° |
| 2026-04-21 20:21 | 35.20814 | -120.63242 | 2559 ft | 95 kts | 147° |
| 2026-04-21 20:21 | 35.20356 | -120.62665 | 2591 ft | 94 kts | 147° |
| 2026-04-21 20:22 | 35.19905 | -120.62090 | 2717 ft | 94 kts | 144° |
| 2026-04-21 20:22 | 35.18998 | -120.60945 | 3078 ft | 94 kts | 144° |
| 2026-04-21 20:22 | 35.18549 | -120.60374 | 3295 ft | 95 kts | 145° |
| 2026-04-21 20:23 | 35.18091 | -120.59792 | 3491 ft | 94 kts | 147° |
| 2026-04-21 20:23 | 35.17636 | -120.59216 | 3650 ft | 94 kts | 147° |
| 2026-04-21 20:23 | 35.17192 | -120.58650 | 3749 ft | 92 kts | 147° |
| 2026-04-21 20:23 | 35.16742 | -120.58079 | 3803 ft | 95 kts | 146° |
| 2026-04-21 20:24 | 35.16286 | -120.57496 | 3973 ft | 96 kts | 146° |
| 2026-04-21 20:24 | 35.15827 | -120.56910 | 4203 ft | 95 kts | 146° |
| 2026-04-21 20:24 | 35.15372 | -120.56330 | 4429 ft | 94 kts | 147° |
| 2026-04-21 20:24 | 35.14909 | -120.55745 | 4610 ft | 96 kts | 146° |
| 2026-04-21 20:25 | 35.14446 | -120.55157 | 4767 ft | 96 kts | 146° |
| 2026-04-21 20:25 | 35.13978 | -120.54564 | 4892 ft | 97 kts | 147° |
| 2026-04-21 20:25 | 35.13513 | -120.53972 | 5018 ft | 97 kts | 146° |
| 2026-04-21 20:25 | 35.13050 | -120.53383 | 5143 ft | 97 kts | 145° |
| 2026-04-21 20:26 | 35.12582 | -120.52787 | 5244 ft | 97 kts | 146° |
| 2026-04-21 20:26 | 35.12115 | -120.52193 | 5385 ft | 97 kts | 146° |
| 2026-04-21 20:26 | 35.11649 | -120.51602 | 5481 ft | 97 kts | 146° |
| 2026-04-21 20:26 | 35.11179 | -120.51003 | 5577 ft | 98 kts | 146° |
| 2026-04-21 20:27 | 35.10707 | -120.50406 | 5698 ft | 97 kts | 144° |
| 2026-04-21 20:27 | 35.10240 | -120.49811 | 5810 ft | 97 kts | 146° |
| 2026-04-21 20:27 | 35.09766 | -120.49212 | 5919 ft | 99 kts | 147° |
| 2026-04-21 20:27 | 35.09295 | -120.48615 | 5998 ft | 100 kts | 147° |
| 2026-04-21 20:28 | 35.08783 | -120.47975 | 6004 ft | 111 kts | 146° |
| 2026-04-21 20:28 | 35.08226 | -120.47278 | 6002 ft | 118 kts | 145° |
| 2026-04-21 20:28 | 35.07646 | -120.46547 | 6001 ft | 122 kts | 145° |
| 2026-04-21 20:28 | 35.07053 | -120.45795 | 6003 ft | 123 kts | 145° |
| 2026-04-21 20:29 | 35.06455 | -120.45036 | 5997 ft | 125 kts | 144° |
| 2026-04-21 20:29 | 35.05850 | -120.44268 | 5998 ft | 126 kts | 144° |
| 2026-04-21 20:29 | 35.05239 | -120.43493 | 6004 ft | 126 kts | 144° |
| 2026-04-21 20:29 | 35.04629 | -120.42719 | 5998 ft | 127 kts | 144° |
| 2026-04-21 20:30 | 35.04020 | -120.41944 | 5996 ft | 126 kts | 144° |
| 2026-04-21 20:30 | 35.03411 | -120.41173 | 6001 ft | 126 kts | 144° |
| 2026-04-21 20:30 | 35.02805 | -120.40404 | 5996 ft | 125 kts | 144° |
| 2026-04-21 20:30 | 35.02213 | -120.39654 | 5994 ft | 123 kts | 145° |
| 2026-04-21 20:31 | 35.01625 | -120.38908 | 6001 ft | 122 kts | 145° |
| 2026-04-21 20:31 | 35.01038 | -120.38165 | 6001 ft | 122 kts | 145° |
| 2026-04-21 20:31 | 35.00446 | -120.37418 | 5996 ft | 122 kts | 145° |
| 2026-04-21 20:31 | 34.99856 | -120.36672 | 6002 ft | 122 kts | 145° |
| 2026-04-21 20:32 | 34.99269 | -120.35929 | 6003 ft | 121 kts | 145° |
| 2026-04-21 20:32 | 34.98682 | -120.35188 | 6007 ft | 122 kts | 145° |
| 2026-04-21 20:32 | 34.98092 | -120.34444 | 6008 ft | 122 kts | 145° |
| 2026-04-21 20:32 | 34.97521 | -120.33720 | 5993 ft | 118 kts | 146° |
| 2026-04-21 20:33 | 34.96955 | -120.33000 | 6010 ft | 118 kts | 145° |
| 2026-04-21 20:33 | 34.96377 | -120.32276 | 6005 ft | 120 kts | 146° |
| 2026-04-21 20:33 | 34.95785 | -120.31535 | 6002 ft | 123 kts | 147° |
| 2026-04-21 20:33 | 34.95209 | -120.30811 | 5995 ft | 119 kts | 146° |
| 2026-04-21 20:34 | 34.94633 | -120.30078 | 5994 ft | 118 kts | 146° |
| 2026-04-21 20:34 | 34.94067 | -120.29358 | 5997 ft | 117 kts | 147° |
| 2026-04-21 20:34 | 34.93507 | -120.28654 | 5996 ft | 118 kts | 146° |
| 2026-04-21 20:34 | 34.92929 | -120.27924 | 5999 ft | 119 kts | 146° |
| 2026-04-21 20:35 | 34.92355 | -120.27200 | 6006 ft | 119 kts | 146° |
| 2026-04-21 20:35 | 34.91778 | -120.26473 | 5999 ft | 119 kts | 146° |
| 2026-04-21 20:35 | 34.91210 | -120.25759 | 5995 ft | 119 kts | 146° |
| 2026-04-21 20:35 | 34.90640 | -120.25039 | 6002 ft | 118 kts | 145° |
| 2026-04-21 20:36 | 34.90084 | -120.24333 | 5997 ft | 118 kts | 146° |
| 2026-04-21 20:36 | 34.89495 | -120.23595 | 5999 ft | 118 kts | 146° |
| 2026-04-21 20:36 | 34.88927 | -120.22881 | 6008 ft | 117 kts | 146° |
| 2026-04-21 20:36 | 34.88371 | -120.22186 | 5996 ft | 118 kts | 146° |
| 2026-04-21 20:37 | 34.87792 | -120.21452 | 5992 ft | 115 kts | 146° |
| 2026-04-21 20:37 | 34.87254 | -120.20769 | 5996 ft | 112 kts | 148° |
| 2026-04-21 20:37 | 34.86716 | -120.20095 | 5999 ft | 116 kts | 147° |
| 2026-04-21 20:37 | 34.86137 | -120.19371 | 5994 ft | 116 kts | 147° |
| 2026-04-21 20:38 | 34.85585 | -120.18673 | 5994 ft | 114 kts | 146° |
| 2026-04-21 20:38 | 34.85038 | -120.17980 | 6002 ft | 114 kts | 148° |
| 2026-04-21 20:38 | 34.84479 | -120.17281 | 6003 ft | 116 kts | 148° |
| 2026-04-21 20:38 | 34.83916 | -120.16576 | 6003 ft | 116 kts | 145° |
| 2026-04-21 20:39 | 34.83358 | -120.15874 | 6003 ft | 114 kts | 148° |
| 2026-04-21 20:39 | 34.82815 | -120.15187 | 6003 ft | 112 kts | 147° |
| 2026-04-21 20:39 | 34.82289 | -120.14518 | 5998 ft | 105 kts | 147° |
| 2026-04-21 20:39 | 34.81804 | -120.13903 | 6002 ft | 100 kts | 149° |
| 2026-04-21 20:40 | 34.81323 | -120.13302 | 6001 ft | 99 kts | 147° |
| 2026-04-21 20:40 | 34.80835 | -120.12690 | 6006 ft | 103 kts | 148° |
| 2026-04-21 20:40 | 34.80324 | -120.12053 | 6010 ft | 105 kts | 148° |
| 2026-04-21 20:40 | 34.79794 | -120.11392 | 6004 ft | 112 kts | 148° |
| 2026-04-21 20:41 | 34.79241 | -120.10703 | 6010 ft | 116 kts | 147° |
| 2026-04-21 20:41 | 34.78670 | -120.09994 | 6009 ft | 123 kts | 147° |
| 2026-04-21 20:41 | 34.78062 | -120.09235 | 6008 ft | 122 kts | 147° |
| 2026-04-21 20:41 | 34.77476 | -120.08493 | 6004 ft | 121 kts | 147° |
| 2026-04-21 20:42 | 34.76899 | -120.07765 | 6012 ft | 119 kts | 147° |
| 2026-04-21 20:42 | 34.76327 | -120.07049 | 6008 ft | 117 kts | 146° |
| 2026-04-21 20:42 | 34.75758 | -120.06334 | 6009 ft | 118 kts | 147° |
| 2026-04-21 20:42 | 34.75189 | -120.05621 | 6001 ft | 115 kts | 147° |
| 2026-04-21 20:43 | 34.74638 | -120.04931 | 6011 ft | 116 kts | 147° |
| 2026-04-21 20:43 | 34.74067 | -120.04217 | 6020 ft | 119 kts | 146° |
| 2026-04-21 20:43 | 34.73467 | -120.03470 | 6013 ft | 128 kts | 147° |
| 2026-04-21 20:43 | 34.72833 | -120.02680 | 6008 ft | 132 kts | 146° |
| 2026-04-21 20:44 | 34.72193 | -120.01880 | 5999 ft | 130 kts | 147° |
| 2026-04-21 20:44 | 34.71574 | -120.01100 | 6007 ft | 124 kts | 146° |
| 2026-04-21 20:44 | 34.70980 | -120.00352 | 6008 ft | 121 kts | 145° |
| 2026-04-21 20:44 | 34.70396 | -119.99622 | 6015 ft | 119 kts | 146° |
| 2026-04-21 20:45 | 34.69819 | -119.98899 | 6007 ft | 119 kts | 145° |
| 2026-04-21 20:45 | 34.69247 | -119.98187 | 6001 ft | 119 kts | 146° |
| 2026-04-21 20:45 | 34.68669 | -119.97463 | 6001 ft | 119 kts | 144° |
| 2026-04-21 20:45 | 34.68096 | -119.96744 | 6002 ft | 118 kts | 145° |
| 2026-04-21 20:46 | 34.67531 | -119.96039 | 6001 ft | 115 kts | 146° |
| 2026-04-21 20:46 | 34.66972 | -119.95341 | 5998 ft | 115 kts | 145° |
| 2026-04-21 20:46 | 34.66438 | -119.94665 | 6006 ft | 107 kts | 146° |
| 2026-04-21 20:46 | 34.65915 | -119.94011 | 6003 ft | 109 kts | 145° |
| 2026-04-21 20:47 | 34.65384 | -119.93351 | 6003 ft | 110 kts | 147° |
| 2026-04-21 20:47 | 34.64852 | -119.92686 | 6004 ft | 110 kts | 146° |
| 2026-04-21 20:47 | 34.64316 | -119.92018 | 6006 ft | 110 kts | 145° |
| 2026-04-21 20:47 | 34.63786 | -119.91357 | 6007 ft | 112 kts | 146° |
| 2026-04-21 20:48 | 34.63234 | -119.90672 | 6011 ft | 115 kts | 145° |
| 2026-04-21 20:48 | 34.62664 | -119.89967 | 6003 ft | 118 kts | 146° |
| 2026-04-21 20:48 | 34.62093 | -119.89255 | 5998 ft | 116 kts | 144° |
| 2026-04-21 20:48 | 34.61537 | -119.88559 | 6003 ft | 114 kts | 145° |
| 2026-04-21 20:49 | 34.61172 | -119.88102 | 6002 ft | 113 kts | 144° |
| 2026-04-21 20:49 | 34.60474 | -119.87221 | 6003 ft | 108 kts | 144° |
| 2026-04-21 20:49 | 34.59949 | -119.86568 | 6010 ft | 109 kts | 145° |
| 2026-04-21 20:49 | 34.59418 | -119.85909 | 6021 ft | 109 kts | 147° |
| 2026-04-21 20:50 | 34.58886 | -119.85247 | 6023 ft | 111 kts | 145° |
| 2026-04-21 20:50 | 34.58341 | -119.84571 | 6021 ft | 114 kts | 144° |
| 2026-04-21 20:50 | 34.57782 | -119.83880 | 6025 ft | 116 kts | 144° |
| 2026-04-21 20:50 | 34.57214 | -119.83178 | 6019 ft | 120 kts | 144° |
| 2026-04-21 20:51 | 34.56628 | -119.82444 | 6014 ft | 116 kts | 146° |
| 2026-04-21 20:51 | 34.56076 | -119.81752 | 6026 ft | 112 kts | 145° |
| 2026-04-21 20:51 | 34.55523 | -119.81066 | 6016 ft | 116 kts | 144° |
| 2026-04-21 20:51 | 34.55151 | -119.80605 | 6016 ft | 115 kts | 145° |
| 2026-04-21 20:52 | 34.54398 | -119.79671 | 6014 ft | 118 kts | 144° |
| 2026-04-21 20:52 | 34.53829 | -119.78963 | 6010 ft | 116 kts | 144° |
| 2026-04-21 20:52 | 34.53280 | -119.78276 | 6010 ft | 111 kts | 143° |
| 2026-04-21 20:52 | 34.52740 | -119.77600 | 6011 ft | 112 kts | 144° |
| 2026-04-21 20:53 | 34.52382 | -119.77155 | 6019 ft | 111 kts | 144° |
| 2026-04-21 20:53 | 34.51842 | -119.76484 | 6018 ft | 110 kts | 143° |
| 2026-04-21 20:53 | 34.51291 | -119.75803 | 6025 ft | 116 kts | 142° |
| 2026-04-21 20:53 | 34.50720 | -119.75097 | 6025 ft | 118 kts | 144° |
| 2026-04-21 20:54 | 34.50135 | -119.74377 | 6017 ft | 120 kts | 143° |
| 2026-04-21 20:54 | 34.49549 | -119.73650 | 6019 ft | 122 kts | 143° |
| 2026-04-21 20:54 | 34.48979 | -119.72938 | 6021 ft | 116 kts | 143° |
| 2026-04-21 20:54 | 34.48413 | -119.72231 | 6018 ft | 117 kts | 144° |
| 2026-04-21 20:55 | 34.47823 | -119.71506 | 6017 ft | 124 kts | 144° |
| 2026-04-21 20:55 | 34.47231 | -119.70772 | 6010 ft | 122 kts | 143° |
| 2026-04-21 20:55 | 34.46639 | -119.70038 | 6013 ft | 122 kts | 144° |
| 2026-04-21 20:55 | 34.46043 | -119.69302 | 6011 ft | 123 kts | 143° |
| 2026-04-21 20:56 | 34.45454 | -119.68568 | 6004 ft | 120 kts | 142° |
| 2026-04-21 20:56 | 34.44891 | -119.67868 | 6013 ft | 118 kts | 143° |
| 2026-04-21 20:56 | 34.44306 | -119.67142 | 6014 ft | 117 kts | 143° |
| 2026-04-21 20:56 | 34.43741 | -119.66441 | 6017 ft | 116 kts | 143° |
| 2026-04-21 20:57 | 34.43179 | -119.65744 | 6013 ft | 115 kts | 143° |
| 2026-04-21 20:57 | 34.42620 | -119.65053 | 6016 ft | 116 kts | 143° |
| 2026-04-21 20:57 | 34.42053 | -119.64352 | 6016 ft | 116 kts | 144° |
| 2026-04-21 20:57 | 34.41488 | -119.63652 | 6017 ft | 116 kts | 143° |
| 2026-04-21 20:58 | 34.40927 | -119.62957 | 6016 ft | 114 kts | 143° |
| 2026-04-21 20:58 | 34.40387 | -119.62288 | 6014 ft | 114 kts | 143° |
| 2026-04-21 20:58 | 34.39830 | -119.61598 | 6015 ft | 112 kts | 143° |
| 2026-04-21 20:58 | 34.39277 | -119.60914 | 6014 ft | 112 kts | 143° |
| 2026-04-21 20:59 | 34.38732 | -119.60239 | 6018 ft | 112 kts | 143° |
| 2026-04-21 20:59 | 34.38194 | -119.59575 | 6015 ft | 112 kts | 143° |
| 2026-04-21 20:59 | 34.37653 | -119.58906 | 6018 ft | 111 kts | 143° |
| 2026-04-21 20:59 | 34.37174 | -119.58314 | 6018 ft | 111 kts | 143° |
| 2026-04-21 21:00 | 34.36632 | -119.57644 | 6019 ft | 112 kts | 143° |
| 2026-04-21 21:00 | 34.36092 | -119.56977 | 6023 ft | 112 kts | 143° |
| 2026-04-21 21:00 | 34.35538 | -119.56294 | 6014 ft | 113 kts | 143° |
| 2026-04-21 21:00 | 34.34986 | -119.55613 | 6014 ft | 113 kts | 143° |
| 2026-04-21 21:01 | 34.34436 | -119.54934 | 6013 ft | 113 kts | 143° |
| 2026-04-21 21:01 | 34.33890 | -119.54259 | 6012 ft | 112 kts | 143° |
| 2026-04-21 21:01 | 34.33350 | -119.53591 | 6016 ft | 111 kts | 143° |
| 2026-04-21 21:01 | 34.32811 | -119.52926 | 6018 ft | 110 kts | 143° |
| 2026-04-21 21:02 | 34.32276 | -119.52265 | 6019 ft | 111 kts | 143° |
| 2026-04-21 21:02 | 34.31731 | -119.51595 | 6014 ft | 112 kts | 143° |
| 2026-04-21 21:02 | 34.31170 | -119.50933 | 6014 ft | 112 kts | 149° |
| 2026-04-21 21:02 | 34.30558 | -119.50359 | 6017 ft | 111 kts | 152° |
| 2026-04-21 21:03 | 34.29951 | -119.49800 | 6017 ft | 111 kts | 152° |
| 2026-04-21 21:03 | 34.29340 | -119.49236 | 6016 ft | 110 kts | 151° |
| 2026-04-21 21:03 | 34.28727 | -119.48676 | 6015 ft | 110 kts | 152° |
| 2026-04-21 21:03 | 34.28113 | -119.48117 | 6016 ft | 110 kts | 152° |
| 2026-04-21 21:04 | 34.27515 | -119.47572 | 6012 ft | 110 kts | 152° |
| 2026-04-21 21:04 | 34.26893 | -119.47002 | 6014 ft | 109 kts | 152° |
| 2026-04-21 21:04 | 34.26284 | -119.46442 | 6015 ft | 110 kts | 152° |
| 2026-04-21 21:04 | 34.25675 | -119.45882 | 6018 ft | 110 kts | 152° |
| 2026-04-21 21:05 | 34.25059 | -119.45319 | 6012 ft | 112 kts | 152° |
| 2026-04-21 21:05 | 34.24445 | -119.44759 | 6015 ft | 112 kts | 152° |
| 2026-04-21 21:05 | 34.23821 | -119.44190 | 6013 ft | 112 kts | 152° |
| 2026-04-21 21:05 | 34.23211 | -119.43630 | 6015 ft | 112 kts | 152° |
| 2026-04-21 21:06 | 34.22622 | -119.42955 | 6011 ft | 115 kts | 142° |
| 2026-04-21 21:06 | 34.22073 | -119.42256 | 6013 ft | 115 kts | 142° |
| 2026-04-21 21:06 | 34.21523 | -119.41557 | 6014 ft | 115 kts | 142° |
| 2026-04-21 21:06 | 34.20967 | -119.40854 | 6017 ft | 115 kts | 142° |
| 2026-04-21 21:07 | 34.20418 | -119.40160 | 6015 ft | 115 kts | 142° |
| 2026-04-21 21:07 | 34.19879 | -119.39481 | 6010 ft | 115 kts | 142° |
| 2026-04-21 21:07 | 34.19284 | -119.38737 | 5877 ft | 126 kts | 142° |
| 2026-04-21 21:07 | 34.18674 | -119.38017 | 5902 ft | 118 kts | 145° |
| 2026-04-21 21:08 | 34.18082 | -119.37278 | 5800 ft | 127 kts | 142° |
| 2026-04-21 21:08 | 34.17440 | -119.36515 | 5671 ft | 131 kts | 144° |
| 2026-04-21 21:08 | 34.16776 | -119.35738 | 5545 ft | 135 kts | 143° |
| 2026-04-21 21:08 | 34.16103 | -119.34938 | 5420 ft | 136 kts | 142° |
| 2026-04-21 21:09 | 34.15458 | -119.34165 | 5299 ft | 137 kts | 142° |
| 2026-04-21 21:09 | 34.14758 | -119.33327 | 5169 ft | 138 kts | 143° |
| 2026-04-21 21:09 | 34.14073 | -119.32507 | 5038 ft | 139 kts | 142° |
| 2026-04-21 21:09 | 34.13399 | -119.31698 | 5014 ft | 133 kts | 143° |
| 2026-04-21 21:10 | 34.12759 | -119.30928 | 5015 ft | 127 kts | 142° |
| 2026-04-21 21:10 | 34.12149 | -119.30195 | 5015 ft | 125 kts | 142° |
| 2026-04-21 21:10 | 34.11526 | -119.29447 | 5015 ft | 124 kts | 143° |
| 2026-04-21 21:10 | 34.10916 | -119.28716 | 5012 ft | 123 kts | 143° |
| 2026-04-21 21:11 | 34.10307 | -119.27988 | 5016 ft | 123 kts | 143° |
| 2026-04-21 21:11 | 34.09694 | -119.27256 | 5015 ft | 124 kts | 143° |
| 2026-04-21 21:11 | 34.09079 | -119.26522 | 5014 ft | 125 kts | 143° |
| 2026-04-21 21:11 | 34.08463 | -119.25785 | 5023 ft | 125 kts | 143° |
| 2026-04-21 21:12 | 34.07847 | -119.25048 | 5025 ft | 124 kts | 144° |
| 2026-04-21 21:12 | 34.07241 | -119.24324 | 5025 ft | 124 kts | 144° |
| 2026-04-21 21:12 | 34.06627 | -119.23590 | 5023 ft | 124 kts | 144° |
| 2026-04-21 21:12 | 34.06023 | -119.22868 | 5025 ft | 123 kts | 144° |
| 2026-04-21 21:13 | 34.05403 | -119.22129 | 5023 ft | 126 kts | 143° |
| 2026-04-21 21:13 | 34.04777 | -119.21381 | 5026 ft | 127 kts | 143° |
| 2026-04-21 21:13 | 34.04146 | -119.20628 | 5026 ft | 128 kts | 143° |
| 2026-04-21 21:13 | 34.03511 | -119.19870 | 5021 ft | 129 kts | 143° |
| 2026-04-21 21:14 | 34.02881 | -119.19117 | 5024 ft | 128 kts | 145° |
| 2026-04-21 21:14 | 34.02247 | -119.18361 | 5025 ft | 128 kts | 144° |
| 2026-04-21 21:14 | 34.01606 | -119.17597 | 5024 ft | 130 kts | 143° |
| 2026-04-21 21:14 | 34.00960 | -119.16827 | 5020 ft | 131 kts | 143° |
| 2026-04-21 21:15 | 34.00314 | -119.16057 | 5018 ft | 131 kts | 143° |
| 2026-04-21 21:15 | 33.99674 | -119.15294 | 5016 ft | 130 kts | 143° |
| 2026-04-21 21:15 | 33.99033 | -119.14530 | 5019 ft | 130 kts | 143° |
| 2026-04-21 21:15 | 33.98392 | -119.13765 | 5018 ft | 129 kts | 144° |
| 2026-04-21 21:16 | 33.97752 | -119.13002 | 5017 ft | 129 kts | 143° |
| 2026-04-21 21:16 | 33.97109 | -119.12238 | 5016 ft | 130 kts | 143° |
| 2026-04-21 21:16 | 33.96491 | -119.11502 | 5017 ft | 129 kts | 143° |
| 2026-04-21 21:16 | 33.95833 | -119.10718 | 5019 ft | 129 kts | 144° |
| 2026-04-21 21:17 | 33.95193 | -119.09957 | 5018 ft | 129 kts | 144° |
| 2026-04-21 21:17 | 33.94553 | -119.09195 | 5017 ft | 129 kts | 143° |
| 2026-04-21 21:17 | 33.93934 | -119.08459 | 5020 ft | 130 kts | 143° |
| 2026-04-21 21:17 | 33.93271 | -119.07671 | 5014 ft | 130 kts | 144° |
| 2026-04-21 21:18 | 33.92628 | -119.06906 | 5017 ft | 129 kts | 144° |
| 2026-04-21 21:18 | 33.91984 | -119.06141 | 5014 ft | 129 kts | 144° |
| 2026-04-21 21:18 | 33.91404 | -119.05451 | 5009 ft | 129 kts | 144° |
| 2026-04-21 21:18 | 33.90766 | -119.04692 | 5017 ft | 129 kts | 144° |
| 2026-04-21 21:19 | 33.90117 | -119.03924 | 4942 ft | 136 kts | 143° |
| 2026-04-21 21:19 | 33.89426 | -119.03111 | 4756 ft | 143 kts | 142° |
| 2026-04-21 21:19 | 33.88708 | -119.02259 | 4580 ft | 146 kts | 142° |
| 2026-04-21 21:19 | 33.87984 | -119.01398 | 4402 ft | 147 kts | 142° |
| 2026-04-21 21:20 | 33.87256 | -119.00533 | 4223 ft | 147 kts | 141° |
| 2026-04-21 21:20 | 33.86527 | -118.99667 | 4046 ft | 147 kts | 142° |
| 2026-04-21 21:20 | 33.85792 | -118.98795 | 3871 ft | 148 kts | 142° |
| 2026-04-21 21:20 | 33.85059 | -118.97925 | 3691 ft | 148 kts | 142° |
| 2026-04-21 21:21 | 33.84338 | -118.97071 | 3521 ft | 148 kts | 141° |
| 2026-04-21 21:21 | 33.83603 | -118.96200 | 3343 ft | 148 kts | 141° |
| 2026-04-21 21:21 | 33.82883 | -118.95346 | 3174 ft | 148 kts | 142° |
| 2026-04-21 21:21 | 33.82130 | -118.94453 | 2991 ft | 149 kts | 141° |
| 2026-04-21 21:22 | 33.81392 | -118.93579 | 2818 ft | 149 kts | 142° |
| 2026-04-21 21:22 | 33.80654 | -118.92706 | 2640 ft | 148 kts | 141° |
| 2026-04-21 21:22 | 33.79922 | -118.91839 | 2458 ft | 148 kts | 141° |
| 2026-04-21 21:22 | 33.79200 | -118.90981 | 2380 ft | 142 kts | 141° |
| 2026-04-21 21:23 | 33.78515 | -118.90168 | 2379 ft | 138 kts | 142° |
| 2026-04-21 21:23 | 33.77835 | -118.89362 | 2379 ft | 136 kts | 144° |
| 2026-04-21 21:23 | 33.77170 | -118.88574 | 2383 ft | 133 kts | 143° |
| 2026-04-21 21:23 | 33.76511 | -118.87796 | 2387 ft | 133 kts | 141° |
| 2026-04-21 21:24 | 33.75854 | -118.87020 | 2387 ft | 133 kts | 141° |
| 2026-04-21 21:24 | 33.75193 | -118.86237 | 2386 ft | 133 kts | 143° |
| 2026-04-21 21:24 | 33.74597 | -118.85533 | 2384 ft | 133 kts | 143° |
| 2026-04-21 21:24 | 33.73936 | -118.84752 | 2388 ft | 131 kts | 143° |
| 2026-04-21 21:25 | 33.73293 | -118.83993 | 2388 ft | 128 kts | 141° |
| 2026-04-21 21:25 | 33.72661 | -118.83247 | 2386 ft | 128 kts | 142° |
| 2026-04-21 21:25 | 33.72025 | -118.82496 | 2387 ft | 130 kts | 142° |
| 2026-04-21 21:25 | 33.71372 | -118.81726 | 2386 ft | 131 kts | 141° |
| 2026-04-21 21:26 | 33.70804 | -118.80855 | 2383 ft | 134 kts | 128° |
| 2026-04-21 21:26 | 33.70321 | -118.79897 | 2384 ft | 134 kts | 127° |
| 2026-04-21 21:26 | 33.69837 | -118.78949 | 2384 ft | 133 kts | 128° |
| 2026-04-21 21:26 | 33.69353 | -118.78017 | 2387 ft | 131 kts | 127° |
| 2026-04-21 21:27 | 33.68870 | -118.77096 | 2389 ft | 130 kts | 129° |
| 2026-04-21 21:27 | 33.68388 | -118.76180 | 2391 ft | 130 kts | 128° |
| 2026-04-21 21:27 | 33.67909 | -118.75268 | 2387 ft | 131 kts | 129° |
| 2026-04-21 21:27 | 33.67421 | -118.74342 | 2387 ft | 131 kts | 127° |
| 2026-04-21 21:28 | 33.66932 | -118.73412 | 2389 ft | 132 kts | 129° |
| 2026-04-21 21:28 | 33.66438 | -118.72476 | 2388 ft | 133 kts | 129° |
| 2026-04-21 21:28 | 33.65444 | -118.70594 | 2392 ft | 133 kts | 129° |
| 2026-04-21 21:29 | 33.64965 | -118.69685 | 2392 ft | 133 kts | 127° |
| 2026-04-21 21:29 | 33.64449 | -118.68718 | 2390 ft | 134 kts | 130° |
| 2026-04-21 21:29 | 33.63911 | -118.67813 | 2396 ft | 133 kts | 131° |
| 2026-04-21 21:29 | 33.63368 | -118.66910 | 2397 ft | 133 kts | 132° |
| 2026-04-21 21:30 | 33.62829 | -118.66000 | 2401 ft | 135 kts | 131° |
| 2026-04-21 21:30 | 33.62261 | -118.65072 | 2398 ft | 142 kts | 132° |
| 2026-04-21 21:30 | 33.61666 | -118.64125 | 2403 ft | 146 kts | 131° |
| 2026-04-21 21:30 | 33.61073 | -118.63144 | 2398 ft | 146 kts | 131° |
| 2026-04-21 21:31 | 33.60488 | -118.62162 | 2395 ft | 141 kts | 131° |
| 2026-04-21 21:31 | 33.59920 | -118.61220 | 2393 ft | 137 kts | 132° |
| 2026-04-21 21:31 | 33.59374 | -118.60291 | 2397 ft | 135 kts | 130° |
| 2026-04-21 21:31 | 33.58836 | -118.59372 | 2397 ft | 133 kts | 131° |
| 2026-04-21 21:32 | 33.58297 | -118.58473 | 2401 ft | 132 kts | 131° |
| 2026-04-21 21:32 | 33.57761 | -118.57597 | 2401 ft | 130 kts | 131° |
| 2026-04-21 21:32 | 33.57227 | -118.56714 | 2406 ft | 130 kts | 131° |
| 2026-04-21 21:32 | 33.56693 | -118.55839 | 2407 ft | 130 kts | 132° |
| 2026-04-21 21:33 | 33.56162 | -118.54965 | 2408 ft | 130 kts | 131° |
| 2026-04-21 21:33 | 33.55645 | -118.54096 | 2408 ft | 130 kts | 131° |
| 2026-04-21 21:33 | 33.55091 | -118.53249 | 2408 ft | 128 kts | 139° |
| 2026-04-21 21:33 | 33.54493 | -118.52466 | 2413 ft | 126 kts | 140° |
| 2026-04-21 21:34 | 33.53893 | -118.51701 | 2416 ft | 126 kts | 140° |
| 2026-04-21 21:34 | 33.53292 | -118.50928 | 2413 ft | 127 kts | 139° |
| 2026-04-21 21:34 | 33.52688 | -118.50152 | 2416 ft | 127 kts | 139° |
| 2026-04-21 21:34 | 33.52088 | -118.49374 | 2416 ft | 126 kts | 140° |
| 2026-04-21 21:35 | 33.51489 | -118.48597 | 2426 ft | 128 kts | 139° |
| 2026-04-21 21:35 | 33.50865 | -118.47809 | 2424 ft | 132 kts | 140° |
| 2026-04-21 21:35 | 33.50236 | -118.46998 | 2421 ft | 133 kts | 139° |
| 2026-04-21 21:35 | 33.49617 | -118.46201 | 2413 ft | 131 kts | 139° |
| 2026-04-21 21:36 | 33.49005 | -118.45414 | 2431 ft | 129 kts | 140° |
| 2026-04-21 21:36 | 33.48397 | -118.44620 | 2435 ft | 129 kts | 139° |
| 2026-04-21 21:36 | 33.47782 | -118.43829 | 2433 ft | 130 kts | 141° |
| 2026-04-21 21:36 | 33.47168 | -118.43030 | 2431 ft | 130 kts | 141° |
| 2026-04-21 21:37 | 33.46566 | -118.42227 | 2431 ft | 129 kts | 139° |
| 2026-04-21 21:37 | 33.45963 | -118.41438 | 2431 ft | 128 kts | 139° |
| 2026-04-21 21:37 | 33.45568 | -118.40918 | 2434 ft | 128 kts | 139° |
| 2026-04-21 21:37 | 33.44765 | -118.39869 | 2431 ft | 129 kts | 140° |
| 2026-04-21 21:38 | 33.44148 | -118.39073 | 2434 ft | 129 kts | 140° |
| 2026-04-21 21:38 | 33.43549 | -118.38289 | 2430 ft | 129 kts | 140° |
| 2026-04-21 21:38 | 33.42919 | -118.37574 | 2408 ft | 124 kts | 156° |
| 2026-04-21 21:38 | 33.42099 | -118.37375 | 2263 ft | 116 kts | 198° |
| 2026-04-21 21:39 | 33.41579 | -118.37915 | 2081 ft | 90 kts | 250° |
| 2026-04-21 21:39 | 33.41600 | -118.38609 | 1927 ft | 76 kts | 276° |
| 2026-04-21 21:39 | 33.41722 | -118.39218 | 1843 ft | 65 kts | 276° |
| 2026-04-21 21:39 | 33.41635 | -118.39668 | 1858 ft | 59 kts | 236° |
| 2026-04-21 21:40 | 33.41359 | -118.40118 | 1911 ft | 69 kts | 234° |
| 2026-04-21 21:40 | 33.41084 | -118.40575 | 1779 ft | 63 kts | 234° |
| 2026-04-21 21:40 | 33.40839 | -118.41007 | 1563 ft | 63 kts | 233° |
| 2026-04-21 21:40 | 33.40605 | -118.41399 | 1569 ft | 44 kts | 236° |
| 2026-04-21 21:41 | 33.40539 | -118.41518 | 1577 ft | 15 kts | 236° |
| 2026-04-21 21:41 | 33.40504 | -118.41531 | 1579 ft | 6 kts | 144° |
| 2026-04-21 21:41 | 33.40430 | -118.41501 | 1583 ft | 9 kts | 177° |
| 2026-04-21 21:41 | 33.40391 | -118.41525 | 1587 ft | 11 kts | 240° |
| 2026-04-21 21:42 | 33.40367 | -118.41561 | 1589 ft | 0 kts | 153° |
| 2026-04-21 21:42 | 33.40361 | -118.41558 | 1589 ft | 0 kts | 166° |